メインページ
METAR-TAF:

METAR-TAF

空港 :

ストックホルム・アーランダ, スウェーデン

ストックホルム・アーランダ空港

緯度: 59-39N, 経度: 017-57E, 海抜: 38m

現時点の気象観測

当レポートは16分前の04:50(UTC)に作成
北東の風 7kt
気温 4°C
湿度 93%
気圧 1022 hPa
視程10km以上
高度2600ftの千切れ雲あり

METAR: ESSA 210450Z 04007KT 9999 BKN026 04/03 Q1022 NOSIG

時間: 07:06 (05:06 UTC)

予報

当レポートは5時間36分前の23:30(UTC)に作成
予報は21日の 00時(UTC)から 21日の 24時(UTC)まで有効
北東の風 8kt
視程10km以上
高度4000ftの千切れ雲あり

TAF: ESSA 202330Z 2100/2124 05008KT 9999 BKN040

4,000以上の空港の気象観測と天気予報(METAR報とTAF報)

利用可能な観測所は地図上に黄色い丸と赤い丸で示す。

丸の上にカーソルを重ねると観測所名を参照できる。

次にクリックすると気象観測と天気予報を参照できる。

マップの切り替え:黒色「×」印の緑ボタンをクリックして拡大、「-」印の緑ボタンをクリックして縮小、緑色の三角印をクリックして隣りの地図に切り替え


METAR-TAF: